Time;durP1;ratioP1;P1;durP2;ratioP2;P2;SDS_P1;SDS_P2;PMS_P1;PMS_P2;Temp;Humidity;BMP_temperature;BMP_pressure;BME280_temperature;BME280_humidity;BME280_pressure;Samples;Min_cycle;Max_cycle;Signal;HPM_P1;HPM_P2
2020/12/20 00:00:34;;;;;;;49.30;19.05;;;;;;;6.28;100.00;100383.06;5082234;28;20031;-74
2020/12/20 00:03:00;;;;;;;45.13;19.55;;;;;;;6.29;100.00;100387.47;5099112;28;20028;-74
2020/12/20 00:05:26;;;;;;;56.08;19.67;;;;;;;6.29;100.00;100385.53;5097877;28;20039;-74
2020/12/20 00:07:52;;;;;;;44.42;18.83;;;;;;;6.29;100.00;100385.53;5081288;28;20027;-75
2020/12/20 00:10:18;;;;;;;44.92;18.08;;;;;;;6.28;100.00;100378.38;5081968;28;20023;-74
2020/12/20 00:12:46;;;;;;;47.17;17.95;;;;;;;6.28;100.00;100381.13;5098804;28;20028;-74
2020/12/20 00:15:15;;;;;;;41.17;16.85;;;;;;;6.28;100.00;100383.06;5098916;28;20048;-74
2020/12/20 00:17:45;;;;;;;39.92;15.55;;;;;;;6.28;100.00;100383.06;5081961;28;20028;-74
2020/12/20 00:20:11;;;;;;;43.35;16.45;;;;;;;6.26;100.00;100375.88;5085865;28;20119;-75
2020/12/20 00:22:36;;;;;;;39.60;14.70;;;;;;;6.25;100.00;100381.66;5051727;28;20023;-74
2020/12/20 00:25:02;;;;;;;41.38;15.60;;;;;;;6.23;100.00;100373.66;5081633;28;20062;-74
2020/12/20 00:27:30;;;;;;;35.90;14.82;;;;;;;6.23;100.00;100375.59;5048348;28;20031;-74
2020/12/20 00:29:56;;;;;;;37.25;13.57;;;;;;;6.21;100.00;100369.50;5081888;28;20055;-74
2020/12/20 00:32:21;;;;;;;35.15;14.50;;;;;;;6.17;100.00;100371.16;5098367;28;20031;-74
2020/12/20 00:34:47;;;;;;;36.67;14.13;;;;;;;6.18;100.00;100378.31;5081606;28;20031;-74
2020/12/20 00:37:13;;;;;;;36.65;14.50;;;;;;;6.16;100.00;100375.84;5098134;28;20099;-75
2020/12/20 00:39:38;;;;;;;38.33;13.93;;;;;;;6.14;100.00;100368.94;5097995;28;20024;-74
2020/12/20 00:42:05;;;;;;;36.05;13.48;;;;;;;6.12;100.00;100371.94;5098241;28;20066;-74
2020/12/20 00:44:30;;;;;;;32.38;12.88;;;;;;;6.13;100.00;100381.03;5072359;28;20119;-74
2020/12/20 00:46:57;;;;;;;32.92;12.25;;;;;;;6.12;100.00;100387.66;5081293;28;20055;-74
2020/12/20 00:49:23;;;;;;;30.40;11.50;;;;;;;6.08;100.00;100378.28;5072800;28;20043;-74
2020/12/20 00:51:51;;;;;;;32.42;11.82;;;;;;;6.08;100.00;100372.78;5077411;28;20391;-74
2020/12/20 00:54:17;;;;;;;32.70;12.15;;;;;;;6.09;100.00;100374.41;5092682;28;20023;-74
2020/12/20 00:56:43;;;;;;;32.95;10.70;;;;;;;6.07;100.00;100376.59;5081168;28;20510;-74
2020/12/20 00:59:08;;;;;;;33.03;10.85;;;;;;;6.06;100.00;100375.78;5080904;28;20091;-74
2020/12/20 01:01:34;;;;;;;23.50;9.48;;;;;;;6.06;100.00;100374.94;5080971;28;20024;-74
2020/12/20 01:03:59;;;;;;;30.05;9.88;;;;;;;6.04;100.00;100376.06;5097817;28;20030;-74
2020/12/20 01:06:25;;;;;;;29.10;10.55;;;;;;;6.04;100.00;100381.56;5097525;28;20039;-74
2020/12/20 01:08:51;;;;;;;30.45;10.20;;;;;;;6.03;100.00;100381.84;5097945;28;20039;-74
2020/12/20 01:11:17;;;;;;;25.88;8.32;;;;;;;6.03;100.00;100381.84;5097353;28;20024;-74
2020/12/20 01:13:43;;;;;;;28.80;8.70;;;;;;;6.01;100.00;100382.09;5064076;28;20047;-74
2020/12/20 01:16:19;;;;;;;26.90;8.93;;;;;;;5.97;100.00;100383.72;5088811;28;20051;-74
2020/12/20 01:18:44;;;;;;;28.73;9.10;;;;;;;5.97;100.00;100383.72;5079454;28;20032;-74
2020/12/20 01:21:10;;;;;;;21.65;8.20;;;;;;;5.95;100.00;100385.91;5057655;28;20534;-75
2020/12/20 01:23:36;;;;;;;26.92;8.13;;;;;;;5.96;100.00;100386.75;5088194;28;20073;-74
2020/12/20 01:26:02;;;;;;;25.88;8.07;;;;;;;5.95;100.00;100385.91;5043463;28;20506;-74
2020/12/20 01:28:27;;;;;;;26.23;8.85;;;;;;;5.95;100.00;100385.91;5061456;28;20024;-74
2020/12/20 01:30:54;;;;;;;21.40;7.10;;;;;;;5.96;100.00;100387.59;5089244;28;20020;-74
2020/12/20 01:33:19;;;;;;;21.05;7.53;;;;;;;5.95;100.00;100385.91;5078194;28;20035;-74
2020/12/20 01:35:45;;;;;;;24.27;6.97;;;;;;;5.95;100.00;100374.88;5089082;28;20024;-74
2020/12/20 01:38:10;;;;;;;22.08;7.18;;;;;;;5.95;100.00;100369.38;5078153;28;20024;-74
2020/12/20 01:40:36;;;;;;;23.60;6.60;;;;;;;5.96;100.00;100382.06;5088878;28;20031;-74
2020/12/20 01:43:01;;;;;;;26.15;7.75;;;;;;;5.96;100.00;100386.75;5076820;28;20051;-74
2020/12/20 01:45:27;;;;;;;22.60;7.10;;;;;;;5.97;100.00;100382.91;5044047;28;20028;-74
2020/12/20 01:47:53;;;;;;;27.02;7.45;;;;;;;5.98;100.00;100388.13;5076482;28;20077;-74
2020/12/20 01:50:18;;;;;;;28.05;7.43;;;;;;;5.97;100.00;100383.72;5076439;28;20028;-74
2020/12/20 01:52:44;;;;;;;25.45;6.72;;;;;;;5.97;100.00;100386.47;5061107;28;20081;-74
2020/12/20 01:55:09;;;;;;;24.48;7.07;;;;;;;5.97;100.00;100388.41;5106797;28;20028;-74
2020/12/20 01:57:35;;;;;;;21.33;6.05;;;;;;;5.96;100.00;100392.25;5061154;28;20023;-74
2020/12/20 02:00:00;;;;;;;21.45;6.28;;;;;;;5.95;100.00;100390.59;5088603;28;20036;-74
2020/12/20 02:02:26;;;;;;;23.33;5.95;;;;;;;5.93;100.00;100393.59;5074594;28;20519;-74
2020/12/20 02:04:52;;;;;;;19.70;6.18;;;;;;;5.93;100.00;100390.00;5028088;28;20089;-74
2020/12/20 02:07:17;;;;;;;21.35;5.80;;;;;;;5.92;100.00;100397.44;5042286;28;20036;-74
2020/12/20 02:09:44;;;;;;;22.75;6.28;;;;;;;5.91;100.00;100392.22;5088318;28;20040;-74
2020/12/20 02:12:10;;;;;;;22.83;6.40;;;;;;;5.89;100.00;100384.19;5044505;28;20532;-74
2020/12/20 02:14:36;;;;;;;18.50;5.50;;;;;;;5.87;100.00;100394.66;5074050;28;20051;-74
2020/12/20 02:17:01;;;;;;;26.85;6.00;;;;;;;5.85;100.00;100396.84;5063268;28;20111;-74
2020/12/20 02:19:27;;;;;;;20.15;5.30;;;;;;;5.84;100.00;100403.44;5089764;28;20024;-74
2020/12/20 02:21:52;;;;;;;16.35;5.15;;;;;;;5.84;100.00;100411.72;5066635;28;20028;-74
2020/12/20 02:24:19;;;;;;;18.90;5.70;;;;;;;5.81;100.00;100413.06;5082749;28;20084;-74
2020/12/20 02:26:44;;;;;;;18.88;5.55;;;;;;;5.81;100.00;100403.97;5079591;28;20472;-75
2020/12/20 02:29:10;;;;;;;19.10;5.20;;;;;;;5.77;100.00;100400.94;5062472;28;20119;-74
2020/12/20 02:31:35;;;;;;;14.43;4.80;;;;;;;5.78;100.00;100399.81;5070358;28;20035;-74
2020/12/20 02:34:01;;;;;;;17.30;5.10;;;;;;;5.76;100.00;100401.19;5079530;28;20038;-74
2020/12/20 02:36:27;;;;;;;19.80;5.78;;;;;;;5.72;100.00;100403.66;5113185;28;20031;-74
2020/12/20 02:38:53;;;;;;;21.08;5.18;;;;;;;5.70;99.91;100400.31;5063473;28;20024;-74
2020/12/20 02:41:18;;;;;;;23.75;4.90;;;;;;;5.69;99.89;100393.16;5073164;28;20024;-74
2020/12/20 02:43:44;;;;;;;17.35;4.90;;;;;;;5.65;99.75;100391.19;5059509;28;20059;-74
2020/12/20 02:46:10;;;;;;;18.27;5.00;;;;;;;5.64;99.98;100397.81;5073196;28;20028;-74
2020/12/20 02:48:35;;;;;;;12.35;4.00;;;;;;;5.62;99.91;100397.22;5069006;28;20114;-74
2020/12/20 02:51:01;;;;;;;16.65;4.20;;;;;;;5.58;99.98;100402.44;5079435;28;20039;-74
2020/12/20 02:53:26;;;;;;;21.50;4.40;;;;;;;5.56;99.88;100405.44;5096670;28;20039;-74
2020/12/20 02:55:52;;;;;;;15.32;4.32;;;;;;;5.54;99.95;100395.78;5079037;28;20118;-74
2020/12/20 02:58:17;;;;;;;14.27;4.18;;;;;;;5.50;99.91;100398.25;5079810;28;20083;-74
2020/12/20 03:00:43;;;;;;;18.63;4.72;;;;;;;5.50;99.94;100402.94;5096345;28;20024;-74
2020/12/20 03:03:09;;;;;;;19.67;4.30;;;;;;;5.47;99.93;100398.78;5114511;28;20032;-74
2020/12/20 03:05:35;;;;;;;14.73;3.50;;;;;;;5.44;99.85;100393.78;5061617;28;20044;-74
2020/12/20 03:08:00;;;;;;;20.60;4.55;;;;;;;5.41;99.78;100404.50;5079388;28;20690;-74
2020/12/20 03:10:26;;;;;;;21.40;4.60;;;;;;;5.39;100.00;100393.75;5062667;28;20031;-74
2020/12/20 03:12:52;;;;;;;21.35;4.20;;;;;;;5.37;100.00;100394.00;5062781;28;20103;-74
2020/12/20 03:15:17;;;;;;;21.83;4.53;;;;;;;5.37;100.00;100401.44;5114072;28;20537;-74
2020/12/20 03:17:43;;;;;;;20.40;3.65;;;;;;;5.34;99.86;100393.69;5114305;28;20080;-74
2020/12/20 03:20:08;;;;;;;10.57;3.13;;;;;;;5.34;100.00;100407.47;5050224;28;20020;-74
2020/12/20 03:22:36;;;;;;;13.18;4.07;;;;;;;5.31;100.00;100392.28;5065498;28;20031;-74
2020/12/20 03:25:03;;;;;;;20.73;3.95;;;;;;;5.33;100.00;100389.28;5079054;28;20028;-75
2020/12/20 03:27:28;;;;;;;12.18;3.45;;;;;;;5.32;100.00;100393.13;5092316;28;20024;-74
2020/12/20 03:29:54;;;;;;;17.08;3.40;;;;;;;5.31;100.00;100402.47;5042494;28;20475;-75
2020/12/20 03:32:19;;;;;;;16.50;3.85;;;;;;;5.30;100.00;100411.84;5095558;28;20031;-74
2020/12/20 03:34:45;;;;;;;16.05;3.50;;;;;;;5.28;100.00;100411.28;5078969;28;20030;-74
2020/12/20 03:37:10;;;;;;;17.85;3.47;;;;;;;5.27;100.00;100417.88;5078961;28;20036;-75
2020/12/20 03:39:36;;;;;;;18.20;3.92;;;;;;;5.25;100.00;100418.13;5078661;28;20023;-74
2020/12/20 03:42:01;;;;;;;14.80;3.20;;;;;;;5.24;99.98;100421.16;5060636;28;20024;-74
2020/12/20 03:44:27;;;;;;;16.15;3.80;;;;;;;5.22;100.00;100418.66;5099872;28;20020;-74
2020/12/20 03:46:53;;;;;;;15.30;3.35;;;;;;;5.22;100.00;100415.06;5078776;28;20379;-74
2020/12/20 03:49:18;;;;;;;17.27;3.50;;;;;;;5.20;100.00;100409.00;5098920;28;20027;-74
2020/12/20 03:51:44;;;;;;;15.18;3.38;;;;;;;5.18;100.00;100412.00;5078574;28;20028;-74
2020/12/20 03:54:09;;;;;;;18.67;2.75;;;;;;;5.17;100.00;100413.09;5071896;28;20027;-74
2020/12/20 03:56:35;;;;;;;14.95;3.10;;;;;;;5.16;100.00;100414.19;5133228;27;20039;-74
2020/12/20 03:59:00;;;;;;;13.93;3.03;;;;;;;5.15;100.00;100412.50;5082222;28;20038;-75
2020/12/20 04:01:26;;;;;;;20.13;3.33;;;;;;;5.13;100.00;100409.22;5082033;28;20026;-75
2020/12/20 04:03:52;;;;;;;14.32;3.00;;;;;;;5.11;100.00;100419.66;5099124;28;20027;-74
2020/12/20 04:06:17;;;;;;;16.23;3.03;;;;;;;5.10;100.00;100413.31;5052328;28;20024;-74
2020/12/20 04:08:43;;;;;;;16.50;2.95;;;;;;;5.09;100.00;100424.56;5082264;28;20053;-74
2020/12/20 04:11:08;;;;;;;15.02;2.92;;;;;;;5.08;99.97;100426.50;5098799;28;20027;-74
2020/12/20 04:13:34;;;;;;;17.23;3.28;;;;;;;5.06;100.00;100417.66;5098773;28;20034;-74
2020/12/20 04:16:10;;;;;;;22.60;3.10;;;;;;;5.05;100.00;100432.53;5065279;28;20055;-74
2020/12/20 04:18:35;;;;;;;13.25;3.38;;;;;;;5.05;100.00;100429.78;5117073;28;20031;-74
2020/12/20 04:21:01;;;;;;;17.17;3.35;;;;;;;5.05;100.00;100473.81;5097422;28;20095;-74
2020/12/20 04:23:27;;;;;;;21.52;4.03;;;;;;;5.05;100.00;100490.34;5074619;28;20038;-74
2020/12/20 04:25:52;;;;;;;18.00;3.22;;;;;;;5.08;100.00;100500.00;5081521;28;20024;-74
2020/12/20 04:28:18;;;;;;;18.58;3.40;;;;;;;5.11;100.00;100496.72;5098413;28;20023;-74
2020/12/20 04:30:44;;;;;;;17.95;2.97;;;;;;;5.15;100.00;100486.84;5078038;28;20070;-74
2020/12/20 04:33:09;;;;;;;16.83;3.42;;;;;;;5.18;100.00;100475.31;5091638;28;20042;-74
2020/12/20 04:35:35;;;;;;;15.85;3.17;;;;;;;5.21;100.00;100488.59;5067490;28;20024;-74
2020/12/20 04:38:00;;;;;;;22.95;2.78;;;;;;;5.25;100.00;100491.66;5105445;28;20023;-74
2020/12/20 04:40:26;;;;;;;16.30;3.50;;;;;;;5.28;100.00;100491.13;5068088;28;20027;-74
2020/12/20 04:43:07;;;;;;;15.05;2.85;;;;;;;5.29;100.00;100477.13;5081614;28;20030;-74
2020/12/20 04:45:33;;;;;;;12.27;2.53;;;;;;;5.31;100.00;100466.66;5082653;28;20019;-74
2020/12/20 04:47:58;;;;;;;14.57;2.67;;;;;;;5.34;100.00;100470.81;5065384;28;20384;-74
2020/12/20 04:50:28;;;;;;;15.82;3.05;;;;;;;5.36;100.00;100474.13;5080662;28;20487;-74
2020/12/20 04:52:54;;;;;;;14.52;3.55;;;;;;;5.38;100.00;100483.81;5097739;28;20019;-74
2020/12/20 04:55:23;;;;;;;16.95;3.17;;;;;;;5.40;100.00;100486.28;5098043;28;20023;-74
2020/12/20 04:57:53;;;;;;;9.57;2.45;;;;;;;5.43;100.00;100499.53;5098045;28;20095;-74
2020/12/20 05:00:18;;;;;;;12.85;2.63;;;;;;;5.44;100.00;100495.72;5098152;28;20020;-74
2020/12/20 05:02:44;;;;;;;11.10;2.40;;;;;;;5.47;100.00;100499.88;5064105;28;20247;-75
2020/12/20 05:05:14;;;;;;;12.77;2.20;;;;;;;5.47;100.00;100488.84;5088161;28;20032;-74
2020/12/20 05:07:41;;;;;;;10.40;2.83;;;;;;;5.49;100.00;100483.88;5083362;28;20066;-74
2020/12/20 05:10:10;;;;;;;10.27;2.20;;;;;;;5.51;100.00;100489.97;5080985;28;20027;-74
2020/12/20 05:12:42;;;;;;;9.57;2.33;;;;;;;5.51;100.00;100481.72;5082772;28;20528;-75
2020/12/20 05:15:21;;;;;;;9.38;2.22;;;;;;;5.51;100.00;100473.44;5080785;28;20051;-74
2020/12/20 05:17:47;;;;;;;12.13;2.50;;;;;;;5.52;100.00;100480.63;5114472;27;20111;-75
2020/12/20 05:20:36;;;;;;;7.88;2.15;;;;;;;5.50;100.00;100483.63;5050875;28;20460;-74
2020/12/20 05:23:02;;;;;;;13.18;2.13;;;;;;;5.49;100.00;100484.75;5058580;28;20042;-74
2020/12/20 05:25:28;;;;;;;16.45;5.55;;;;;;;5.50;100.00;100488.31;5063685;28;20148;-73
2020/12/20 05:28:06;;;;;;;104.25;46.78;;;;;;;5.49;100.00;100484.75;5115538;28;20028;-72
2020/12/20 05:30:32;;;;;;;116.32;50.45;;;;;;;5.48;100.00;100488.56;5097116;28;20023;-73
2020/12/20 05:32:57;;;;;;;162.95;69.95;;;;;;;5.45;100.00;100485.50;5097388;28;20527;-73
2020/12/20 05:35:23;;;;;;;171.32;75.30;;;;;;;5.44;100.00;100495.72;5115149;28;20054;-73
2020/12/20 05:37:48;;;;;;;174.43;75.53;;;;;;;5.43;100.00;100494.03;5115509;28;20387;-73
2020/12/20 05:40:24;;;;;;;139.25;61.88;;;;;;;5.42;100.00;100500.63;5115010;28;20032;-73
2020/12/20 05:42:55;;;;;;;163.93;72.68;;;;;;;5.40;100.00;100505.56;5115310;28;20051;-73
2020/12/20 05:45:23;;;;;;;155.52;69.68;;;;;;;5.37;100.00;100512.41;5102428;28;20046;-73
2020/12/20 05:47:48;;;;;;;152.23;70.35;;;;;;;5.37;100.00;100506.09;5081380;28;20024;-73
2020/12/20 05:50:14;;;;;;;141.82;64.32;;;;;;;5.35;100.00;100500.03;5096711;28;20509;-72
2020/12/20 05:52:39;;;;;;;128.50;57.03;;;;;;;5.33;100.00;100504.97;5096949;28;20032;-73
2020/12/20 05:55:11;;;;;;;136.98;59.63;;;;;;;5.31;100.00;100515.38;5114879;28;20027;-73
2020/12/20 05:57:37;;;;;;;121.00;55.25;;;;;;;5.29;100.00;100503.78;5096858;28;20024;-73
2020/12/20 06:00:03;;;;;;;106.68;48.53;;;;;;;5.27;100.00;100506.81;5115002;28;20034;-73
2020/12/20 06:02:28;;;;;;;100.55;46.17;;;;;;;5.26;100.00;100507.06;5096581;28;20038;-73
2020/12/20 06:04:54;;;;;;;105.40;45.25;;;;;;;5.23;100.00;100515.84;5075770;28;20032;-73
2020/12/20 06:07:19;;;;;;;103.72;42.58;;;;;;;5.22;100.00;100509.53;5092078;28;20077;-73
2020/12/20 06:09:54;;;;;;;89.45;39.30;;;;;;;5.22;100.00;100515.03;5079573;28;20051;-73
2020/12/20 06:12:24;;;;;;;74.75;32.35;;;;;;;5.20;100.00;100513.63;5114767;28;20031;-73
2020/12/20 06:14:49;;;;;;;87.55;38.42;;;;;;;5.19;100.00;100510.03;5114693;28;20073;-73
2020/12/20 06:17:22;;;;;;;73.03;33.67;;;;;;;5.18;100.00;100526.81;5096698;28;20472;-73
2020/12/20 06:19:55;;;;;;;73.13;31.08;;;;;;;5.16;100.00;100524.31;5086969;28;20130;-73
2020/12/20 06:22:29;;;;;;;74.63;32.90;;;;;;;5.14;100.00;100524.56;5084508;28;20317;-73
2020/12/20 06:24:56;;;;;;;71.97;33.40;;;;;;;5.13;100.00;100533.09;5096101;28;20031;-73
2020/12/20 06:27:23;;;;;;;67.43;29.77;;;;;;;5.11;100.00;100527.00;5095791;28;20034;-73
2020/12/20 06:29:51;;;;;;;63.80;27.75;;;;;;;5.10;100.00;100528.94;5114631;28;20115;-74
2020/12/20 06:32:41;;;;;;;58.33;26.65;;;;;;;5.09;100.00;100531.94;5096320;28;20565;-73
2020/12/20 06:35:26;;;;;;;61.03;27.23;;;;;;;5.07;100.00;100534.09;5113858;28;20039;-73
2020/12/20 06:37:51;;;;;;;57.45;24.45;;;;;;;5.06;100.00;100533.28;5084722;28;20556;-74
2020/12/20 06:40:29;;;;;;;51.95;23.30;;;;;;;5.05;100.00;100544.56;5079143;28;20027;-74
2020/12/20 06:42:54;;;;;;;50.60;21.10;;;;;;;5.02;100.00;100540.41;5114488;28;20023;-73
2020/12/20 06:45:20;;;;;;;47.42;20.17;;;;;;;5.00;100.00;100553.56;5114362;28;20476;-73
2020/12/20 06:47:47;;;;;;;43.95;20.30;;;;;;;4.97;100.00;100554.09;5113851;28;20035;-74
2020/12/20 06:50:13;;;;;;;43.05;18.90;;;;;;;4.98;100.00;100564.00;5066068;28;20058;-74
2020/12/20 06:52:48;;;;;;;42.22;18.58;;;;;;;4.94;100.00;100568.38;5079646;28;20027;-75
2020/12/20 06:55:18;;;;;;;40.17;18.58;;;;;;;4.92;100.00;100562.28;5079090;28;20066;-74
2020/12/20 06:58:02;;;;;;;39.83;16.90;;;;;;;4.91;100.00;100557.88;5079807;28;20030;-74
2020/12/20 07:00:38;;;;;;;33.80;16.00;;;;;;;4.89;100.00;100563.63;5096027;28;20027;-74
2020/12/20 07:03:03;;;;;;;34.40;14.65;;;;;;;4.85;100.00;100558.91;5095844;28;20028;-74
2020/12/20 07:05:39;;;;;;;36.95;16.88;;;;;;;4.83;99.91;100552.81;5095998;28;20034;-75
2020/12/20 07:08:27;;;;;;;33.45;15.15;;;;;;;4.79;100.00;100562.66;5079477;28;20055;-75
2020/12/20 07:10:53;;;;;;;34.15;14.55;;;;;;;4.74;99.86;100560.69;5114134;28;20027;-74
2020/12/20 07:13:38;;;;;;;34.63;13.05;;;;;;;4.71;99.90;100552.94;5079609;28;20027;-75
2020/12/20 07:16:17;;;;;;;31.70;13.25;;;;;;;4.68;99.84;100553.41;5097656;28;20047;-75
2020/12/20 07:18:58;;;;;;;30.67;13.15;;;;;;;4.66;99.89;100556.44;5100364;28;20030;-75
2020/12/20 07:21:26;;;;;;;30.92;11.88;;;;;;;4.64;99.91;100564.09;5090544;28;20024;-74
2020/12/20 07:24:05;;;;;;;31.08;12.48;;;;;;;4.59;100.00;100561.28;5100325;28;20031;-74
2020/12/20 07:26:31;;;;;;;25.52;11.32;;;;;;;4.57;99.81;100562.63;5118255;28;20339;-74
2020/12/20 07:28:58;;;;;;;23.33;10.60;;;;;;;4.55;99.86;100554.63;5082598;28;20643;-75
2020/12/20 07:31:24;;;;;;;26.00;10.48;;;;;;;4.52;100.00;100565.31;5083590;28;20047;-74
2020/12/20 07:33:50;;;;;;;27.15;10.00;;;;;;;4.50;99.83;100561.97;5066507;28;20034;-74
2020/12/20 07:36:16;;;;;;;28.98;9.98;;;;;;;4.46;99.92;100567.16;5100164;28;20039;-75
2020/12/20 07:38:41;;;;;;;23.90;9.45;;;;;;;4.44;99.82;100566.56;5063349;28;20032;-74
2020/12/20 07:41:10;;;;;;;20.95;8.60;;;;;;;4.41;99.57;100569.81;5092090;28;20035;-74
2020/12/20 07:43:35;;;;;;;24.70;8.32;;;;;;;4.39;99.88;100580.22;5100234;28;20537;-74
2020/12/20 07:46:04;;;;;;;19.65;7.93;;;;;;;4.36;99.71;100584.31;5118562;28;20078;-75
2020/12/20 07:48:30;;;;;;;20.90;7.95;;;;;;;4.36;99.75;100589.00;5083353;28;20030;-74
2020/12/20 07:51:11;;;;;;;17.73;7.15;;;;;;;4.34;99.76;100593.91;5099971;28;20028;-74
2020/12/20 07:53:50;;;;;;;20.25;7.05;;;;;;;4.31;99.80;100577.91;5071816;28;20024;-75
2020/12/20 07:56:22;;;;;;;19.63;7.35;;;;;;;4.29;99.91;100583.69;5102869;28;20530;-74
2020/12/20 07:58:47;;;;;;;17.65;6.40;;;;;;;4.28;99.76;100594.91;5100212;28;20023;-75
2020/12/20 08:01:13;;;;;;;17.15;6.03;;;;;;;4.27;99.84;100594.06;5082819;28;20024;-74
2020/12/20 08:03:38;;;;;;;14.88;5.93;;;;;;;4.24;99.89;100592.66;5066542;28;20028;-74
2020/12/20 08:06:14;;;;;;;15.35;6.40;;;;;;;4.23;99.76;100601.16;5082205;28;20030;-75
2020/12/20 08:08:40;;;;;;;19.55;6.35;;;;;;;4.21;99.85;100604.16;5099611;28;20062;-75
2020/12/20 08:11:26;;;;;;;14.73;6.13;;;;;;;4.20;100.00;100610.72;5099236;28;20057;-73
2020/12/20 08:14:00;;;;;;;16.73;6.13;;;;;;;4.21;100.00;100614.31;5087567;28;20120;-75
2020/12/20 08:16:29;;;;;;;15.55;6.00;;;;;;;4.21;100.00;100609.66;5053186;28;20139;-75
2020/12/20 08:19:04;;;;;;;26.45;11.82;;;;;;;4.24;100.00;100625.66;5043324;28;20531;-75
2020/12/20 08:21:56;;;;;;;28.95;12.90;;;;;;;4.25;100.00;100626.47;5056858;28;20102;-75
2020/12/20 08:24:31;;;;;;;35.15;16.67;;;;;;;4.27;100.00;100634.50;5076581;28;20032;-75
2020/12/20 08:26:57;;;;;;;38.80;19.15;;;;;;;4.29;100.00;100640.56;5076853;28;20035;-75
2020/12/20 08:29:22;;;;;;;39.45;19.42;;;;;;;4.30;100.00;100639.50;5093117;28;20531;-75
2020/12/20 08:31:56;;;;;;;39.90;20.63;;;;;;;4.31;100.00;100650.22;5057485;28;20036;-75
2020/12/20 08:34:23;;;;;;;35.60;18.30;;;;;;;4.34;100.00;100652.47;5074674;28;20036;-73
2020/12/20 08:36:55;;;;;;;39.92;18.42;;;;;;;4.38;100.00;100650.06;5093102;28;20034;-75
2020/12/20 08:39:23;;;;;;;42.00;20.77;;;;;;;4.44;100.00;100657.31;5078307;28;20499;-70
2020/12/20 08:42:02;;;;;;;44.80;19.85;;;;;;;4.51;100.00;100668.16;5096742;28;20028;-71
2020/12/20 08:47:26;;;;;;;38.25;15.70;;;;;;;4.66;100.00;100671.97;5078820;28;20040;-73
2020/12/20 08:49:56;;;;;;;33.63;14.48;;;;;;;4.73;100.00;100669.06;5078139;28;20035;-74
2020/12/20 08:52:22;;;;;;;37.17;15.02;;;;;;;4.80;100.00;100675.22;5075539;28;20028;-74
2020/12/20 08:54:51;;;;;;;33.63;13.43;;;;;;;4.86;100.00;100671.47;5074129;28;20055;-73
2020/12/20 08:57:16;;;;;;;33.95;13.82;;;;;;;4.94;100.00;100667.44;5054497;28;20031;-73
2020/12/20 08:59:43;;;;;;;31.77;13.05;;;;;;;5.00;100.00;100677.44;5077090;28;20028;-73
2020/12/20 09:02:16;;;;;;;26.75;12.10;;;;;;;5.08;100.00;100676.19;5094608;28;20107;-74
2020/12/20 09:04:42;;;;;;;36.53;14.13;;;;;;;5.17;100.00;100685.66;5088844;28;20036;-73
2020/12/20 09:07:20;;;;;;;77.65;35.70;;;;;;;5.27;100.00;100676.72;5095260;28;20484;-75
2020/12/20 09:09:49;;;;;;;66.53;29.38;;;;;;;5.34;100.00;100671.84;5059506;28;20036;-74
2020/12/20 09:12:17;;;;;;;67.05;29.45;;;;;;;5.41;100.00;100680.78;5061803;28;20055;-75
2020/12/20 09:15:12;;;;;;;54.58;26.65;;;;;;;5.50;100.00;100681.16;5048509;28;20585;-75
2020/12/20 09:17:51;;;;;;;55.50;25.02;;;;;;;5.58;100.00;100677.94;5067557;28;20063;-75
2020/12/20 09:24:47;;;;;;;63.83;27.75;;;;;;;5.81;100.00;100682.34;5051460;28;20130;-75
2020/12/20 09:31:42;;;;;;;;;;;;;;;;;;;;;
2020/12/20 09:35:19;;;;;;;80.47;33.17;;;;;;;6.14;99.94;100697.06;5034991;28;20076;-75
2020/12/20 09:39:13;;;;;;;;;;;;;;;;;;;;;
2020/12/20 09:53:19;;;;;;;62.78;26.75;;;;;;;6.78;98.93;100713.66;4939696;28;20063;-72
2020/12/20 09:55:44;;;;;;;62.92;26.83;;;;;;;6.87;99.23;100717.59;4998174;28;20042;-71
2020/12/20 09:58:11;;;;;;;55.60;24.17;;;;;;;6.99;99.53;100722.91;4987152;28;20034;-71
2020/12/20 10:00:36;;;;;;;51.13;21.38;;;;;;;7.10;100.00;100726.59;4994822;28;20043;-72
2020/12/20 10:03:02;;;;;;;53.03;20.40;;;;;;;7.21;99.86;100727.50;4994628;28;20042;-71
2020/12/20 10:05:31;;;;;;;44.03;20.00;;;;;;;7.31;99.81;100728.38;4994697;28;20117;-75
2020/12/20 10:08:00;;;;;;;40.65;18.83;;;;;;;7.44;99.70;100734.53;4979304;28;20391;-70
2020/12/20 10:10:26;;;;;;;44.53;18.73;;;;;;;7.54;99.49;100734.59;4994520;28;20042;-74
2020/12/20 10:12:51;;;;;;;50.03;17.70;;;;;;;7.63;99.14;100734.91;5011230;28;20043;-74
2020/12/20 10:15:48;;;;;;;41.47;16.85;;;;;;;7.74;98.83;100733.84;5037462;28;20602;-75
2020/12/20 10:18:26;;;;;;;38.03;14.98;;;;;;;7.83;98.51;100735.84;5028147;28;20548;-75
2020/12/20 10:21:21;;;;;;;33.28;14.23;;;;;;;7.92;98.29;100743.63;5027258;28;20045;-76
2020/12/20 10:23:49;;;;;;;31.30;12.57;;;;;;;8.00;98.06;100743.09;5065826;28;20115;-76
2020/12/20 10:26:27;;;;;;;28.58;10.45;;;;;;;8.06;97.86;100744.78;5048738;28;20035;-75
2020/12/20 10:29:21;;;;;;;22.20;9.55;;;;;;;8.14;97.50;100748.97;5101195;28;20032;-76
2020/12/20 10:32:14;;;;;;;21.42;8.40;;;;;;;8.21;97.24;100753.09;5083959;28;20029;-76
2020/12/20 10:34:50;;;;;;;20.23;7.97;;;;;;;8.28;97.40;100756.47;5060290;28;20027;-76
2020/12/20 10:37:22;;;;;;;26.45;7.82;;;;;;;8.33;97.00;100761.19;5055591;28;20035;-76
2020/12/20 10:39:57;;;;;;;20.98;7.13;;;;;;;8.41;96.65;100768.13;5065737;28;20042;-76
2020/12/20 10:42:33;;;;;;;20.02;5.97;;;;;;;8.46;96.74;100755.13;5049450;28;20039;-76
2020/12/20 10:45:18;;;;;;;17.67;5.97;;;;;;;8.51;96.72;100757.09;5058173;28;20030;-76
2020/12/20 10:47:47;;;;;;;17.92;5.65;;;;;;;8.58;96.80;100757.66;5064806;28;20028;-76
2020/12/20 10:50:18;;;;;;;17.15;5.63;;;;;;;8.67;96.48;100766.25;5082112;28;20390;-76
2020/12/20 10:53:13;;;;;;;16.02;5.15;;;;;;;8.71;96.48;100756.28;5050894;28;20039;-76
2020/12/20 10:58:55;;;;;;;15.80;4.85;;;;;;;8.85;96.25;100767.66;5105902;28;20046;-75
2020/12/20 11:01:21;;;;;;;15.43;4.55;;;;;;;8.90;95.92;100757.41;5081824;28;20027;-72
2020/12/20 11:03:47;;;;;;;13.98;5.68;;;;;;;8.97;96.20;100764.59;5101509;28;20040;-74
2020/12/20 11:06:18;;;;;;;17.50;6.32;;;;;;;9.04;96.60;100759.63;5084452;28;20027;-73
2020/12/20 11:08:45;;;;;;;17.63;6.30;;;;;;;9.11;96.96;100749.94;5085266;28;20449;-73
2020/12/20 11:11:10;;;;;;;18.98;6.55;;;;;;;9.18;97.11;100750.44;5099470;28;20031;-73
2020/12/20 11:13:38;;;;;;;20.40;5.68;;;;;;;9.27;97.26;100755.44;5101367;28;20028;-73
2020/12/20 11:16:04;;;;;;;16.15;5.13;;;;;;;9.34;97.08;100756.81;5119050;28;20052;-72
2020/12/20 11:18:29;;;;;;;17.83;5.20;;;;;;;9.40;97.27;100750.16;5092362;28;20035;-71
2020/12/20 11:20:55;;;;;;;15.57;5.35;;;;;;;9.46;96.85;100759.28;5112131;28;20131;-72
2020/12/20 11:23:20;;;;;;;20.98;5.55;;;;;;;9.52;96.74;100752.59;5100865;28;20035;-72
2020/12/20 11:25:46;;;;;;;14.32;4.65;;;;;;;9.56;96.73;100752.91;5085282;28;20020;-72
2020/12/20 11:28:11;;;;;;;19.52;5.25;;;;;;;9.60;96.69;100745.66;5101652;28;20035;-72
2020/12/20 11:30:37;;;;;;;15.27;4.70;;;;;;;9.63;97.04;100742.31;5116584;28;20027;-72
2020/12/20 11:33:02;;;;;;;15.60;4.57;;;;;;;9.67;96.94;100739.81;5117253;28;20023;-72
2020/12/20 11:35:28;;;;;;;14.93;4.28;;;;;;;9.72;96.73;100750.88;5119189;28;20036;-73
2020/12/20 11:37:53;;;;;;;14.93;4.28;;;;;;;9.75;96.92;100750.31;5098813;28;20479;-72
2020/12/20 11:40:19;;;;;;;15.45;5.22;;;;;;;9.79;96.83;100754.19;5117579;27;20031;-72
2020/12/20 11:42:44;;;;;;;12.55;3.88;;;;;;;9.80;97.14;100750.31;5099996;28;20028;-72
2020/12/20 11:45:10;;;;;;;15.32;3.80;;;;;;;9.85;96.96;100742.78;5119125;28;20046;-73
2020/12/20 11:47:39;;;;;;;15.20;4.15;;;;;;;9.89;96.93;100737.53;5116703;28;20028;-72
2020/12/20 11:50:04;;;;;;;13.02;3.70;;;;;;;9.92;97.03;100736.97;5117055;28;20038;-72
2020/12/20 11:52:37;;;;;;;17.38;3.90;;;;;;;9.97;96.89;100738.84;5097814;28;20035;-72
2020/12/20 11:55:03;;;;;;;13.13;4.10;;;;;;;10.00;96.99;100741.06;5119644;28;20110;-73